createdAt,value
2023-02-08T00:00:53.031Z,14.13
2023-02-08T00:03:20.895Z,14.70
2023-02-08T00:05:50.452Z,13.53
2023-02-08T00:08:18.400Z,14.27
2023-02-08T00:10:46.498Z,13.83
2023-02-08T00:13:14.291Z,15.10
2023-02-08T00:15:43.393Z,13.93
2023-02-08T00:18:11.610Z,14.67
2023-02-08T00:20:40.013Z,13.97
2023-02-08T00:23:09.371Z,13.90
2023-02-08T00:25:37.242Z,13.23
2023-02-08T00:28:08.410Z,11.53
2023-02-08T00:30:37.217Z,14.33
2023-02-08T00:33:05.767Z,14.23
2023-02-08T00:35:33.706Z,13.20
2023-02-08T00:38:01.588Z,12.83
2023-02-08T00:40:30.623Z,13.67
2023-02-08T00:42:58.350Z,13.80
2023-02-08T00:45:26.029Z,13.27
2023-02-08T00:47:53.763Z,11.17
2023-02-08T00:50:22.105Z,14.47
2023-02-08T00:52:49.861Z,11.93
2023-02-08T00:55:17.761Z,11.80
2023-02-08T00:57:46.891Z,13.43
2023-02-08T01:00:15.300Z,14.37
2023-02-08T01:02:43.171Z,12.67
2023-02-08T01:05:12.747Z,17.90
2023-02-08T01:07:40.980Z,16.13
2023-02-08T01:10:12.871Z,14.70
2023-02-08T01:12:41.828Z,14.87
2023-02-08T01:15:11.310Z,14.00
2023-02-08T01:17:39.680Z,14.53
2023-02-08T01:20:08.427Z,14.13
2023-02-08T01:22:37.482Z,16.27
2023-02-08T01:25:05.434Z,13.40
2023-02-08T01:27:33.213Z,13.93
2023-02-08T01:30:00.972Z,14.20
2023-02-08T01:32:30.875Z,12.83
2023-02-08T01:34:58.631Z,13.30
2023-02-08T01:37:26.385Z,11.20
2023-02-08T01:39:54.194Z,10.07
2023-02-08T01:42:22.697Z,12.80
2023-02-08T01:45:27.664Z,10.33
2023-02-08T01:48:04.330Z,12.00
2023-02-08T01:50:37.565Z,14.03
2023-02-08T01:53:05.642Z,10.67
2023-02-08T01:55:37.737Z,11.47
2023-02-08T01:58:09.224Z,13.50
2023-02-08T02:00:37.076Z,11.50
2023-02-08T02:03:08.916Z,13.03
2023-02-08T02:05:42.559Z,11.73
2023-02-08T02:08:12.110Z,12.23
2023-02-08T02:10:42.579Z,12.33
2023-02-08T02:13:14.084Z,10.80
2023-02-08T02:15:46.231Z,10.90
2023-02-08T02:18:19.921Z,10.10
2023-02-08T02:21:06.600Z,11.50
2023-02-08T02:23:54.034Z,12.77
2023-02-08T02:26:54.177Z,14.20
2023-02-08T02:29:47.762Z,14.67
2023-02-08T02:32:36.499Z,12.63
2023-02-08T02:35:14.201Z,11.87
2023-02-08T02:37:53.470Z,13.77
2023-02-08T02:40:28.823Z,13.40
2023-02-08T02:43:24.599Z,13.40
2023-02-08T02:46:01.410Z,12.47
2023-02-08T02:48:39.525Z,13.50
2023-02-08T02:51:10.973Z,12.23
2023-02-08T02:53:48.842Z,12.67
2023-02-08T02:56:20.510Z,12.70
2023-02-08T02:58:48.263Z,12.80
2023-02-08T03:01:26.006Z,12.80
2023-02-08T03:03:55.551Z,12.53
2023-02-08T03:06:34.997Z,14.60
2023-02-08T03:09:36.251Z,12.80
2023-02-08T03:12:16.803Z,15.37
2023-02-08T03:14:56.917Z,13.23
2023-02-08T03:17:39.003Z,12.60
2023-02-08T03:20:11.056Z,13.50
2023-02-08T03:22:46.518Z,11.47
2023-02-08T03:25:21.667Z,14.60
2023-02-08T03:27:56.896Z,12.20
2023-02-08T03:30:31.809Z,13.00
2023-02-08T03:33:04.180Z,14.73
2023-02-08T03:35:37.471Z,11.63
2023-02-08T03:38:08.565Z,14.03
2023-02-08T03:40:40.204Z,12.83
2023-02-08T03:43:15.860Z,12.73
2023-02-08T03:45:47.741Z,12.53
2023-02-08T03:48:19.331Z,13.93
2023-02-08T03:50:53.503Z,14.67
2023-02-08T03:53:23.970Z,13.10
2023-02-08T03:55:57.755Z,12.83
2023-02-08T03:58:30.242Z,14.60
2023-02-08T04:01:02.399Z,14.97
2023-02-08T04:03:32.721Z,14.07
2023-02-08T04:06:01.857Z,14.13
2023-02-08T04:08:29.589Z,14.20
2023-02-08T04:10:57.344Z,15.10
2023-02-08T04:13:25.227Z,13.37
2023-02-08T04:15:53.057Z,11.50
2023-02-08T04:18:20.742Z,12.57
2023-02-08T04:20:48.526Z,9.30
2023-02-08T04:23:17.594Z,12.37
2023-02-08T04:25:45.324Z,15.90
2023-02-08T04:28:13.147Z,15.10
2023-02-08T04:30:41.149Z,14.43
2023-02-08T04:33:09.094Z,13.53
2023-02-08T04:35:36.782Z,15.07
2023-02-08T04:38:04.505Z,14.53
2023-02-08T04:40:33.587Z,13.97
2023-02-08T04:43:02.335Z,16.43
2023-02-08T04:45:32.107Z,15.67
2023-02-08T04:48:01.797Z,12.63
2023-02-08T04:50:29.678Z,12.20
2023-02-08T04:52:57.401Z,13.77
2023-02-08T04:55:25.096Z,13.63
2023-02-08T04:57:54.171Z,15.30
2023-02-08T05:00:22.046Z,14.03
2023-02-08T05:02:53.824Z,14.10
2023-02-08T05:05:21.710Z,10.37
2023-02-08T05:07:49.429Z,12.87
2023-02-08T05:10:17.394Z,17.13
2023-02-08T05:12:46.234Z,16.50
2023-02-08T05:15:15.596Z,12.07
2023-02-08T05:17:43.308Z,14.97
2023-02-08T05:20:12.851Z,14.37
2023-02-08T05:22:40.722Z,14.57
2023-02-08T05:25:10.865Z,12.13
2023-02-08T05:27:38.773Z,17.00
2023-02-08T05:30:07.363Z,14.33
2023-02-08T05:32:36.484Z,14.03
2023-02-08T05:35:04.327Z,12.43
2023-02-08T05:37:34.274Z,13.57
2023-02-08T05:40:02.014Z,16.43
2023-02-08T05:42:29.793Z,12.43
2023-02-08T05:44:59.976Z,12.67
2023-02-08T05:47:27.764Z,13.00
2023-02-08T05:49:56.891Z,15.87
2023-02-08T05:52:26.722Z,11.83
2023-02-08T05:54:54.480Z,15.33
2023-02-08T05:57:22.290Z,12.87
2023-02-08T05:59:50.237Z,13.10
2023-02-08T06:02:18.062Z,12.03
2023-02-08T06:04:46.111Z,12.10
2023-02-08T06:07:15.252Z,14.57
2023-02-08T06:09:43.082Z,13.00
2023-02-08T06:12:10.874Z,14.90
2023-02-08T06:14:38.581Z,17.07
2023-02-08T06:17:06.351Z,16.77
2023-02-08T06:19:34.158Z,16.53
2023-02-08T06:22:01.950Z,13.43
2023-02-08T06:24:31.307Z,15.50
2023-02-08T06:26:59.083Z,13.30
2023-02-08T06:29:26.810Z,14.37
2023-02-08T06:31:54.732Z,18.63
2023-02-08T06:34:22.785Z,15.87
2023-02-08T06:36:51.022Z,12.10
2023-02-08T06:39:18.931Z,13.33
2023-02-08T06:41:48.144Z,17.03
2023-02-08T06:44:16.004Z,12.90
2023-02-08T06:46:43.784Z,19.00
2023-02-08T06:49:12.081Z,12.37
2023-02-08T06:51:41.377Z,16.80
2023-02-08T06:54:11.298Z,13.17
2023-02-08T06:56:39.080Z,14.67
2023-02-08T06:59:08.305Z,16.33
2023-02-08T07:01:36.031Z,15.30
2023-02-08T07:04:03.871Z,17.03
2023-02-08T07:06:31.696Z,12.63
2023-02-08T07:09:02.605Z,15.00
2023-02-08T07:11:32.542Z,17.67
2023-02-08T07:14:00.430Z,19.73
2023-02-08T07:16:29.616Z,19.20
2023-02-08T07:18:57.412Z,17.90
2023-02-08T07:21:25.360Z,34.43
2023-02-08T07:23:53.062Z,35.20
2023-02-08T07:26:20.833Z,47.63
2023-02-08T07:28:48.607Z,39.93
2023-02-08T07:31:18.063Z,37.53
2023-02-08T07:33:47.481Z,37.50
2023-02-08T07:36:15.245Z,27.67
2023-02-08T07:38:42.993Z,34.53
2023-02-08T07:41:13.686Z,23.60
2023-02-08T07:43:42.849Z,31.20
2023-02-08T07:46:12.726Z,26.30
2023-02-08T07:48:40.854Z,20.53
2023-02-08T07:51:10.634Z,21.07
2023-02-08T07:53:39.271Z,18.53
2023-02-08T07:56:07.839Z,20.70
2023-02-08T07:58:35.690Z,22.60
2023-02-08T08:01:19.744Z,18.93
2023-02-08T08:03:49.591Z,19.30
2023-02-08T08:06:18.990Z,21.97
2023-02-08T08:08:47.632Z,16.10
2023-02-08T08:11:15.853Z,18.63
2023-02-08T08:13:43.616Z,14.83
2023-02-08T08:16:11.596Z,16.97
2023-02-08T08:18:39.455Z,15.77
2023-02-08T08:21:07.741Z,15.90
2023-02-08T08:23:37.216Z,12.93
2023-02-08T08:26:08.584Z,15.33
2023-02-08T08:28:39.271Z,18.30
2023-02-08T08:31:11.218Z,17.50
2023-02-08T08:33:39.114Z,15.87
2023-02-08T08:36:07.536Z,15.73
2023-02-08T08:38:38.657Z,18.00
2023-02-08T08:41:09.009Z,14.93
2023-02-08T08:43:36.756Z,14.70
2023-02-08T08:46:06.876Z,16.77
2023-02-08T08:48:34.915Z,16.90
2023-02-08T08:51:02.793Z,17.33
2023-02-08T08:53:30.677Z,16.30
2023-02-08T08:55:59.821Z,17.30
2023-02-08T08:58:27.671Z,16.47
2023-02-08T09:00:58.408Z,17.13
2023-02-08T09:03:26.352Z,13.83
2023-02-08T09:05:54.245Z,13.43
2023-02-08T09:08:21.948Z,12.97
2023-02-08T09:10:49.898Z,13.70
2023-02-08T09:13:21.165Z,14.30
2023-02-08T09:15:50.029Z,10.93
2023-02-08T09:18:18.199Z,13.20
2023-02-08T09:20:46.251Z,12.77
2023-02-08T09:23:15.155Z,13.53
2023-02-08T09:25:43.050Z,15.10
2023-02-08T09:28:10.983Z,12.40
2023-02-08T09:30:40.241Z,12.67
2023-02-08T09:33:08.082Z,16.60
2023-02-08T09:35:35.874Z,15.77
2023-02-08T09:38:05.320Z,13.70
2023-02-08T09:40:50.393Z,17.70
2023-02-08T09:43:22.145Z,15.97
2023-02-08T09:46:00.214Z,12.87
2023-02-08T09:48:33.520Z,13.90
2023-02-08T09:51:05.227Z,15.87
2023-02-08T09:53:37.779Z,14.93
2023-02-08T09:56:07.794Z,13.40
2023-02-08T09:58:38.808Z,16.77
2023-02-08T10:01:18.551Z,13.60
2023-02-08T10:03:47.962Z,14.07
2023-02-08T10:06:18.297Z,15.47
2023-02-08T10:08:48.878Z,16.93
2023-02-08T10:11:32.999Z,16.07
2023-02-08T10:14:19.588Z,17.17
2023-02-08T10:17:01.985Z,12.87
2023-02-08T10:19:42.629Z,16.50
2023-02-08T10:22:18.539Z,14.23
2023-02-08T10:25:22.290Z,16.17
2023-02-08T10:28:07.334Z,15.20
2023-02-08T10:30:46.154Z,15.30
2023-02-08T10:33:22.933Z,14.83
2023-02-08T10:35:53.236Z,15.87
2023-02-08T10:38:29.733Z,15.90
2023-02-08T10:41:07.368Z,14.03
2023-02-08T10:43:41.332Z,13.27
2023-02-08T10:46:17.186Z,13.80
2023-02-08T10:48:58.597Z,15.53
2023-02-08T10:51:27.340Z,16.57
2023-02-08T10:53:55.205Z,12.93
2023-02-08T10:56:37.855Z,12.33
2023-02-08T10:59:15.484Z,16.67
2023-02-08T11:01:44.610Z,13.97
2023-02-08T11:04:14.646Z,16.17
2023-02-08T11:06:44.472Z,13.13
2023-02-08T11:09:23.826Z,12.17
2023-02-08T11:11:53.433Z,14.50
2023-02-08T11:14:30.418Z,12.57
2023-02-08T11:17:05.749Z,12.27
2023-02-08T11:19:42.378Z,13.63
2023-02-08T11:22:16.976Z,13.77
2023-02-08T11:24:50.363Z,13.50
2023-02-08T11:27:20.170Z,12.53
2023-02-08T11:30:24.248Z,13.20
2023-02-08T11:33:18.536Z,10.50
2023-02-08T11:35:56.746Z,11.90
2023-02-08T11:38:28.098Z,11.40
2023-02-08T11:40:58.850Z,13.63
2023-02-08T11:43:29.963Z,10.53
2023-02-08T11:46:00.242Z,12.87
2023-02-08T11:48:35.774Z,9.20
2023-02-08T11:51:05.312Z,10.87
2023-02-08T11:53:36.665Z,11.67
2023-02-08T11:56:08.026Z,9.30
2023-02-08T11:58:36.038Z,9.10
2023-02-08T12:01:06.080Z,8.40
2023-02-08T12:03:38.570Z,9.90
2023-02-08T12:06:26.948Z,9.10
2023-02-08T12:09:04.164Z,10.40
2023-02-08T12:11:41.612Z,12.17
2023-02-08T12:14:34.449Z,9.23
2023-02-08T12:17:29.459Z,7.97
2023-02-08T12:20:11.129Z,8.50
2023-02-08T12:22:51.462Z,7.90
2023-02-08T12:25:27.201Z,7.60
2023-02-08T12:28:02.895Z,6.93
2023-02-08T12:30:35.685Z,7.80
2023-02-08T12:33:26.886Z,6.00
2023-02-08T12:36:06.662Z,6.33
2023-02-08T12:39:18.545Z,6.50
2023-02-08T12:42:05.788Z,6.93
2023-02-08T12:44:46.254Z,7.10
2023-02-08T12:47:32.584Z,11.23
2023-02-08T12:50:09.131Z,7.33
2023-02-08T12:52:42.369Z,9.97
2023-02-08T12:55:19.814Z,7.57
2023-02-08T12:57:54.570Z,7.67
2023-02-08T13:00:26.149Z,7.87
2023-02-08T13:03:03.896Z,7.50
2023-02-08T13:05:40.078Z,6.87
2023-02-08T13:08:18.158Z,8.17
2023-02-08T13:10:54.601Z,8.30
2023-02-08T13:13:26.988Z,6.67
2023-02-08T13:15:58.555Z,7.30
2023-02-08T13:18:31.430Z,6.57
2023-02-08T13:21:02.693Z,7.00
2023-02-08T13:23:43.541Z,7.23
2023-02-08T13:26:24.458Z,7.17
2023-02-08T13:28:54.330Z,7.60
2023-02-08T13:31:25.849Z,6.67
2023-02-08T13:34:01.682Z,5.77
2023-02-08T13:36:32.406Z,6.27
2023-02-08T13:39:02.333Z,7.80
2023-02-08T13:41:33.670Z,6.93
2023-02-08T13:44:05.271Z,6.20
2023-02-08T13:46:39.489Z,7.07
2023-02-08T13:49:07.303Z,7.17
2023-02-08T13:52:03.255Z,7.03
2023-02-08T13:54:31.277Z,8.07
2023-02-08T13:57:00.724Z,7.43
2023-02-08T13:59:38.267Z,8.40
2023-02-08T14:02:28.622Z,5.23
2023-02-08T14:05:44.677Z,6.27
2023-02-08T14:08:24.087Z,10.00
2023-02-08T14:11:04.646Z,6.23
2023-02-08T14:13:45.605Z,7.57
2023-02-08T14:16:32.227Z,6.40
2023-02-08T14:19:01.621Z,7.77
2023-02-08T14:21:34.619Z,7.07
2023-02-08T14:24:05.128Z,9.97
2023-02-08T14:26:36.429Z,8.80
2023-02-08T14:29:08.053Z,9.25
2023-02-08T14:31:44.471Z,6.47
2023-02-08T14:34:27.720Z,8.53
2023-02-08T14:37:06.014Z,7.10
2023-02-08T14:39:37.105Z,8.17
2023-02-08T14:42:08.764Z,7.30
2023-02-08T14:44:48.941Z,7.63
2023-02-08T14:48:07.869Z,11.50
2023-02-08T14:50:41.959Z,9.50
2023-02-08T14:53:28.364Z,7.40
2023-02-08T14:56:02.088Z,8.27
2023-02-08T14:58:33.249Z,9.07
2023-02-08T15:01:06.085Z,9.30
2023-02-08T15:03:36.053Z,10.13
2023-02-08T15:06:31.939Z,8.33
2023-02-08T15:08:59.842Z,9.30
2023-02-08T15:11:30.925Z,10.87
2023-02-08T15:14:01.822Z,8.10
2023-02-08T15:16:35.758Z,10.63
2023-02-08T15:19:05.814Z,9.07
2023-02-08T15:21:37.293Z,9.53
2023-02-08T15:24:14.088Z,9.60
2023-02-08T15:26:46.733Z,10.40
2023-02-08T15:29:19.851Z,7.87
2023-02-08T15:31:48.403Z,9.33
2023-02-08T15:34:18.419Z,10.47
2023-02-08T15:36:52.812Z,8.63
2023-02-08T15:39:34.645Z,10.40
2023-02-08T15:42:03.218Z,8.53
2023-02-08T15:44:32.753Z,10.17
2023-02-08T15:47:05.318Z,8.63
2023-02-08T15:49:36.607Z,7.57
2023-02-08T15:52:09.906Z,9.17
2023-02-08T15:54:37.934Z,9.50
2023-02-08T15:57:09.850Z,10.00
2023-02-08T15:59:41.133Z,10.37
2023-02-08T16:02:25.808Z,9.80
2023-02-08T16:04:54.284Z,11.00
2023-02-08T16:07:29.339Z,11.20
2023-02-08T16:09:58.466Z,10.77
2023-02-08T16:12:28.711Z,9.10
2023-02-08T16:14:57.609Z,10.07
2023-02-08T16:17:42.977Z,10.73
2023-02-08T16:20:30.702Z,10.63
2023-02-08T16:23:03.333Z,11.13
2023-02-08T16:25:37.798Z,10.60
2023-02-08T16:28:07.717Z,10.27
2023-02-08T16:30:35.661Z,11.07
2023-02-08T16:33:09.198Z,11.57
2023-02-08T16:35:40.275Z,11.50
2023-02-08T16:38:11.526Z,11.50
2023-02-08T16:40:48.981Z,12.27
2023-02-08T16:43:18.172Z,9.80
2023-02-08T16:46:18.936Z,12.33
2023-02-08T16:48:50.506Z,9.67
2023-02-08T16:51:22.804Z,9.83
2023-02-08T16:53:54.966Z,13.57
2023-02-08T16:56:23.741Z,15.50
2023-02-08T16:58:51.636Z,11.87
2023-02-08T17:01:22.765Z,11.37
2023-02-08T17:03:53.282Z,10.97
2023-02-08T17:06:30.464Z,12.80
2023-02-08T17:09:00.967Z,9.90
2023-02-08T17:11:29.340Z,10.70
2023-02-08T17:13:58.345Z,11.30
2023-02-08T17:16:28.624Z,9.90
2023-02-08T17:18:56.932Z,11.87
2023-02-08T17:21:24.753Z,10.30
2023-02-08T17:23:52.793Z,10.10
2023-02-08T17:26:27.414Z,13.40
2023-02-08T17:28:58.981Z,13.80
2023-02-08T17:31:28.296Z,10.60
2023-02-08T17:33:58.255Z,11.70
2023-02-08T17:36:25.999Z,12.37
2023-02-08T17:38:53.719Z,12.97
2023-02-08T17:41:25.295Z,11.03
2023-02-08T17:43:55.828Z,13.97
2023-02-08T17:46:27.683Z,15.83
2023-02-08T17:48:55.657Z,11.83
2023-02-08T17:51:25.016Z,14.37
2023-02-08T17:53:52.909Z,13.03
2023-02-08T17:56:23.128Z,13.53
2023-02-08T17:58:53.903Z,13.20
2023-02-08T18:01:24.486Z,12.63
2023-02-08T18:03:53.207Z,12.50
2023-02-08T18:06:23.013Z,15.10
2023-02-08T18:08:50.839Z,14.37
2023-02-08T18:11:21.022Z,11.30
2023-02-08T18:13:50.837Z,13.17
2023-02-08T18:16:22.478Z,13.37
2023-02-08T18:18:50.242Z,13.47
2023-02-08T18:21:20.273Z,12.37
2023-02-08T18:23:49.403Z,12.47
2023-02-08T18:26:19.555Z,11.60
2023-02-08T18:28:47.994Z,12.47
2023-02-08T18:31:21.526Z,16.77
2023-02-08T18:33:50.939Z,14.77
2023-02-08T18:36:19.123Z,15.73
2023-02-08T18:38:49.288Z,13.63
2023-02-08T18:41:21.164Z,16.50
2023-02-08T18:43:49.837Z,16.17
2023-02-08T18:46:21.236Z,14.13
2023-02-08T18:48:49.604Z,13.37
2023-02-08T18:51:19.696Z,15.13
2023-02-08T18:53:50.442Z,12.83
2023-02-08T18:56:21.449Z,17.60
2023-02-08T18:58:49.521Z,14.80
2023-02-08T19:01:21.065Z,16.73
2023-02-08T19:03:51.829Z,14.27
2023-02-08T19:06:22.737Z,14.37
2023-02-08T19:08:52.378Z,16.90
2023-02-08T19:11:23.204Z,16.50
2023-02-08T19:13:51.838Z,14.30
2023-02-08T19:16:22.402Z,13.70
2023-02-08T19:18:53.249Z,15.50
2023-02-08T19:21:21.701Z,15.23
2023-02-08T19:23:51.817Z,13.43
2023-02-08T19:26:21.664Z,13.37
2023-02-08T19:28:49.996Z,14.83
2023-02-08T19:31:20.139Z,12.67
2023-02-08T19:33:53.497Z,15.63
2023-02-08T19:36:23.914Z,13.13
2023-02-08T19:38:53.959Z,13.50
2023-02-08T19:41:24.108Z,14.33
2023-02-08T19:43:52.066Z,18.17
2023-02-08T19:46:23.183Z,13.37
2023-02-08T19:48:53.723Z,14.43
2023-02-08T19:51:21.585Z,13.50
2023-02-08T19:53:49.816Z,17.13
2023-02-08T19:56:19.649Z,16.40
2023-02-08T19:58:48.212Z,15.13
2023-02-08T20:01:18.343Z,18.73
2023-02-08T20:03:50.155Z,16.00
2023-02-08T20:06:21.094Z,15.17
2023-02-08T20:08:49.670Z,17.23
2023-02-08T20:11:19.616Z,15.83
2023-02-08T20:13:48.286Z,15.87
2023-02-08T20:16:16.825Z,15.23
2023-02-08T20:18:44.752Z,13.53
2023-02-08T20:21:12.788Z,17.17
2023-02-08T20:23:42.155Z,14.03
2023-02-08T20:26:11.872Z,14.50
2023-02-08T20:28:41.571Z,19.43
2023-02-08T20:31:10.561Z,14.30
2023-02-08T20:33:39.305Z,15.07
2023-02-08T20:36:09.509Z,13.93
2023-02-08T20:38:38.327Z,19.00
2023-02-08T20:41:10.199Z,21.27
2023-02-08T20:43:38.530Z,22.20
2023-02-08T20:46:07.230Z,21.07
2023-02-08T20:48:35.356Z,19.27
2023-02-08T20:51:07.384Z,20.57
2023-02-08T20:53:35.840Z,20.70
2023-02-08T20:56:08.198Z,19.77
2023-02-08T20:58:36.241Z,21.23
2023-02-08T21:01:08.482Z,19.33
2023-02-08T21:03:36.388Z,19.70
2023-02-08T21:06:13.633Z,19.00
2023-02-08T21:08:43.954Z,20.47
2023-02-08T21:11:13.433Z,19.53
2023-02-08T21:13:41.282Z,17.20
2023-02-08T21:16:11.699Z,19.17
2023-02-08T21:18:39.599Z,22.53
2023-02-08T21:21:08.190Z,19.43
2023-02-08T21:23:37.005Z,19.30
2023-02-08T21:26:06.831Z,16.53
2023-02-08T21:28:36.595Z,16.00
2023-02-08T21:31:07.287Z,20.03
2023-02-08T21:33:35.846Z,17.60
2023-02-08T21:36:03.917Z,17.23
2023-02-08T21:38:32.034Z,17.83
2023-02-08T21:40:59.796Z,20.67
2023-02-08T21:43:27.644Z,18.53
2023-02-08T21:45:56.758Z,18.77
2023-02-08T21:48:24.596Z,23.57
2023-02-08T21:51:09.872Z,19.23
2023-02-08T21:53:55.182Z,18.83
2023-02-08T21:56:23.050Z,20.43
2023-02-08T21:58:50.804Z,17.77
2023-02-08T22:01:19.927Z,21.57
2023-02-08T22:03:47.735Z,18.40
2023-02-08T22:06:15.469Z,18.43
2023-02-08T22:08:43.263Z,18.37
2023-02-08T22:11:11.017Z,19.53
2023-02-08T22:13:38.822Z,20.43
2023-02-08T22:16:08.730Z,18.83
2023-02-08T22:18:41.220Z,19.20
2023-02-08T22:21:09.789Z,19.40
2023-02-08T22:23:39.855Z,19.40
2023-02-08T22:26:08.573Z,18.57
2023-02-08T22:28:36.636Z,21.77
2023-02-08T22:31:04.838Z,18.33
2023-02-08T22:33:32.660Z,20.13
2023-02-08T22:36:01.891Z,18.23
2023-02-08T22:38:29.664Z,18.00
2023-02-08T22:40:57.451Z,18.43
2023-02-08T22:43:25.195Z,18.73
2023-02-08T22:45:58.157Z,20.80
2023-02-08T22:48:26.212Z,18.97
2023-02-08T22:50:54.285Z,19.47
2023-02-08T22:53:23.431Z,14.37
2023-02-08T22:55:51.660Z,20.50
2023-02-08T22:58:19.438Z,15.07
2023-02-08T23:00:49.033Z,18.03
2023-02-08T23:03:17.934Z,17.83
2023-02-08T23:05:48.205Z,14.97
2023-02-08T23:08:18.042Z,17.80
2023-02-08T23:10:47.437Z,16.53
2023-02-08T23:13:15.337Z,18.00
2023-02-08T23:15:45.726Z,21.80
2023-02-08T23:18:13.655Z,20.43
2023-02-08T23:20:42.080Z,21.13
2023-02-08T23:23:09.859Z,16.67
2023-02-08T23:25:40.141Z,16.93
2023-02-08T23:28:11.524Z,22.47
2023-02-08T23:30:40.030Z,16.77
2023-02-08T23:33:08.134Z,18.73
2023-02-08T23:35:35.937Z,17.77
2023-02-08T23:38:05.798Z,17.30
2023-02-08T23:40:33.606Z,17.93
2023-02-08T23:43:03.639Z,19.73
2023-02-08T23:45:32.860Z,18.40
2023-02-08T23:48:00.844Z,17.50
2023-02-08T23:50:28.612Z,20.87
2023-02-08T23:52:56.519Z,20.73
2023-02-08T23:55:25.338Z,20.23
2023-02-08T23:57:53.119Z,15.60
